createdAt,value
2023-04-15T00:01:00.392Z,100.00
2023-04-15T00:04:35.478Z,100.00
2023-04-15T00:08:16.534Z,100.00
2023-04-15T00:11:53.634Z,100.00
2023-04-15T00:18:58.126Z,100.00
2023-04-15T00:22:38.620Z,100.00
2023-04-15T00:26:08.717Z,100.00
2023-04-15T00:29:36.102Z,100.00
2023-04-15T00:44:15.438Z,100.00
2023-04-15T00:47:54.097Z,100.00
2023-04-15T00:51:32.585Z,100.00
2023-04-15T00:55:09.251Z,100.00
2023-04-15T00:58:53.220Z,100.00
2023-04-15T01:20:21.424Z,100.00
2023-04-15T01:27:32.495Z,100.00
2023-04-15T01:31:15.444Z,100.00
2023-04-15T01:34:51.265Z,100.00
2023-04-15T01:49:12.465Z,100.00
2023-04-15T02:03:59.878Z,100.00
2023-04-15T02:11:25.052Z,100.00
2023-04-15T02:22:18.986Z,100.00
2023-04-15T02:25:53.618Z,100.00
2023-04-15T02:29:35.235Z,100.00
2023-04-15T02:32:59.446Z,100.00
2023-04-15T02:36:34.885Z,100.00
2023-04-15T02:40:27.461Z,100.00
2023-04-15T02:44:05.113Z,100.00
2023-04-15T02:47:48.524Z,100.00
2023-04-15T02:51:26.117Z,100.00
2023-04-15T02:55:06.742Z,100.00
2023-04-15T02:58:39.411Z,100.00
2023-04-15T03:02:17.059Z,100.00
2023-04-15T03:05:58.310Z,100.00
2023-04-15T03:09:42.788Z,100.00
2023-04-15T03:13:21.728Z,100.00
2023-04-15T03:17:01.570Z,100.00
2023-04-15T03:20:21.318Z,100.00
2023-04-15T03:24:00.743Z,100.00
2023-04-15T03:27:39.713Z,100.00
2023-04-15T03:31:19.939Z,100.00
2023-04-15T03:34:45.071Z,100.00
2023-04-15T03:38:22.942Z,100.00
2023-04-15T03:42:00.430Z,100.00
2023-04-15T03:45:20.695Z,100.00
2023-04-15T03:49:00.968Z,100.00
2023-04-15T03:52:36.158Z,100.00
2023-04-15T03:55:56.773Z,100.00
2023-04-15T04:06:40.641Z,100.00
2023-04-15T04:10:26.623Z,100.00
2023-04-15T04:13:48.356Z,100.00
2023-04-15T04:28:26.629Z,100.00
2023-04-15T04:31:49.864Z,100.00
2023-04-15T04:35:16.541Z,100.00
2023-04-15T04:54:12.591Z,100.00
2023-04-15T05:01:17.987Z,100.00
2023-04-15T05:04:43.818Z,100.00
2023-04-15T05:08:25.099Z,100.00
2023-04-15T05:55:29.864Z,100.00
2023-04-15T05:59:21.979Z,100.00
2023-04-15T06:02:28.103Z,100.00
2023-04-15T06:05:52.738Z,100.00
2023-04-15T06:08:58.735Z,100.00
2023-04-15T06:12:42.704Z,100.00
2023-04-15T06:15:45.664Z,100.00
2023-04-15T06:19:12.699Z,100.00
2023-04-15T06:22:37.693Z,100.00
2023-04-15T06:25:44.891Z,100.00
2023-04-15T06:28:50.725Z,100.00
2023-04-15T06:31:58.964Z,100.00
2023-04-15T06:35:08.388Z,100.00
2023-04-15T06:38:56.651Z,99.02
2023-04-15T06:42:22.060Z,98.50
2023-04-15T06:45:49.110Z,97.98
2023-04-15T06:48:55.123Z,99.12
2023-04-15T06:52:27.868Z,100.00
2023-04-15T06:55:31.745Z,99.27
2023-04-15T06:59:18.182Z,97.25
2023-04-15T07:02:45.528Z,97.58
2023-04-15T07:06:09.918Z,97.19
2023-04-15T07:09:12.953Z,98.17
2023-04-15T07:12:25.647Z,95.72
2023-04-15T07:15:30.622Z,96.67
2023-04-15T07:19:16.603Z,94.45
2023-04-15T07:22:42.888Z,92.97
2023-04-15T07:26:32.805Z,89.80
2023-04-15T07:29:56.786Z,87.54
2023-04-15T07:33:21.815Z,86.25
2023-04-15T07:36:46.308Z,85.59
2023-04-15T07:40:17.867Z,85.62
2023-04-15T07:43:23.464Z,83.69
2023-04-15T07:46:29.911Z,83.96
2023-04-15T07:49:56.955Z,81.03
2023-04-15T07:53:35.783Z,86.96
2023-04-15T07:57:26.880Z,80.65
2023-04-15T08:00:35.184Z,75.52
2023-04-15T08:04:06.363Z,77.16
2023-04-15T08:07:11.658Z,74.31
2023-04-15T08:11:00.166Z,71.39
2023-04-15T08:14:05.998Z,73.20
2023-04-15T08:17:33.020Z,70.81
2023-04-15T08:21:01.366Z,69.51
2023-04-15T08:25:00.600Z,72.23
2023-04-15T08:28:07.789Z,76.09
2023-04-15T08:31:51.432Z,73.37
2023-04-15T08:39:46.861Z,70.59
2023-04-15T08:43:51.878Z,69.19
2023-04-15T08:51:11.202Z,67.97
2023-04-15T09:58:29.907Z,58.76
2023-04-15T10:24:31.564Z,73.58
2023-04-15T12:31:29.825Z,65.27
2023-04-15T12:39:48.043Z,67.80
2023-04-15T13:18:05.712Z,70.33
2023-04-15T13:58:06.464Z,70.77
2023-04-15T14:08:55.818Z,73.91
2023-04-15T14:12:25.559Z,72.64
2023-04-15T14:15:54.874Z,73.49
2023-04-15T14:19:24.089Z,73.61
2023-04-15T14:22:45.958Z,73.86
2023-04-15T14:26:20.705Z,74.64
2023-04-15T14:29:41.046Z,75.82
2023-04-15T14:33:13.172Z,76.87
2023-04-15T14:36:28.686Z,75.65
2023-04-15T14:39:50.064Z,73.78
2023-04-15T14:43:17.243Z,72.70
2023-04-15T14:46:47.539Z,72.19
2023-04-15T14:50:06.760Z,71.53
2023-04-15T14:53:24.753Z,69.11
2023-04-15T14:56:56.235Z,67.61
2023-04-15T15:00:15.989Z,67.82
2023-04-15T15:03:46.949Z,68.31
2023-04-15T15:07:17.935Z,70.79
2023-04-15T15:10:54.003Z,70.79
2023-04-15T15:14:29.574Z,72.20
2023-04-15T15:18:05.855Z,71.87
2023-04-15T15:21:24.940Z,73.14
2023-04-15T15:24:48.187Z,73.93
2023-04-15T15:28:28.643Z,75.01
2023-04-15T15:31:51.777Z,77.77
2023-04-15T15:35:23.561Z,77.92
2023-04-15T15:38:47.723Z,78.51
2023-04-15T15:42:25.241Z,78.21
2023-04-15T15:45:55.723Z,78.93
2023-04-15T15:49:15.262Z,77.83
2023-04-15T15:52:42.174Z,79.98
2023-04-15T15:56:20.585Z,81.11
2023-04-15T15:59:48.160Z,80.19
2023-04-15T16:03:17.206Z,81.50
2023-04-15T16:06:52.587Z,81.97
2023-04-15T16:10:29.311Z,84.04
2023-04-15T16:13:57.039Z,83.69
2023-04-15T16:17:15.159Z,86.79
2023-04-15T16:20:39.111Z,89.29
2023-04-15T16:24:11.373Z,91.04
2023-04-15T16:27:58.886Z,93.94
2023-04-15T16:31:07.639Z,97.50
2023-04-15T16:34:27.475Z,100.00
2023-04-15T16:38:04.146Z,100.00
2023-04-15T16:41:42.829Z,100.00
2023-04-15T16:45:07.647Z,100.00
2023-04-15T16:48:29.840Z,100.00
2023-04-15T16:51:57.842Z,100.00
2023-04-15T16:55:18.775Z,100.00
2023-04-15T16:58:35.731Z,100.00
2023-04-15T17:01:56.048Z,100.00
2023-04-15T17:05:24.372Z,100.00
2023-04-15T17:08:57.614Z,100.00
2023-04-15T17:12:17.068Z,100.00
2023-04-15T17:15:46.782Z,100.00
2023-04-15T17:19:21.165Z,100.00
2023-04-15T17:22:53.282Z,100.00
2023-04-15T17:26:18.969Z,100.00
2023-04-15T17:29:58.563Z,100.00
2023-04-15T17:33:56.099Z,100.00
2023-04-15T17:36:55.507Z,100.00
2023-04-15T17:40:14.956Z,100.00
2023-04-15T17:43:32.131Z,100.00
2023-04-15T17:47:02.270Z,100.00
2023-04-15T17:50:32.441Z,100.00
2023-04-15T17:53:49.792Z,100.00
2023-04-15T17:57:06.899Z,100.00
2023-04-15T18:00:31.077Z,100.00
2023-04-15T18:04:08.118Z,100.00
2023-04-15T18:07:41.844Z,100.00
2023-04-15T18:11:21.094Z,100.00
2023-04-15T18:14:59.827Z,100.00
2023-04-15T18:18:35.987Z,100.00
2023-04-15T18:22:00.886Z,100.00
2023-04-15T18:25:35.528Z,100.00
2023-04-15T18:29:05.260Z,100.00
2023-04-15T18:32:31.994Z,100.00
2023-04-15T19:13:36.981Z,100.00
2023-04-15T19:28:00.006Z,100.00
2023-04-15T19:35:17.419Z,100.00
2023-04-15T19:42:32.931Z,100.00
2023-04-15T20:04:35.836Z,100.00
2023-04-15T20:12:09.987Z,100.00
2023-04-15T20:15:16.583Z,100.00
2023-04-15T20:18:53.509Z,100.00
2023-04-15T20:22:27.338Z,100.00
2023-04-15T20:44:54.039Z,100.00
2023-04-15T20:48:24.502Z,100.00
2023-04-15T20:53:05.010Z,100.00
2023-04-15T21:00:28.128Z,100.00
2023-04-15T21:08:10.980Z,100.00
2023-04-15T21:15:40.305Z,100.00
2023-04-15T21:19:19.681Z,100.00
2023-04-15T21:22:53.854Z,100.00
2023-04-15T21:26:29.044Z,100.00
2023-04-15T21:40:59.890Z,100.00
2023-04-15T21:44:40.543Z,100.00
2023-04-15T21:48:22.676Z,100.00
2023-04-15T21:55:31.807Z,100.00
2023-04-15T22:02:48.423Z,100.00
2023-04-15T23:29:41.008Z,100.00
2023-04-15T23:47:56.530Z,100.00
2023-04-15T23:55:50.994Z,100.00
